createdAt,value
2022-09-06T00:00:03.246Z,20.18
2022-09-06T00:01:03.200Z,20.18
2022-09-06T00:02:03.199Z,20.16
2022-09-06T00:03:03.233Z,20.14
2022-09-06T00:04:03.270Z,20.21
2022-09-06T00:05:03.158Z,20.07
2022-09-06T00:06:03.186Z,20.02
2022-09-06T00:07:03.135Z,20.06
2022-09-06T00:08:03.139Z,20.04
2022-09-06T00:09:03.128Z,20.06
2022-09-06T00:10:03.103Z,20.02
2022-09-06T00:11:03.106Z,19.94
2022-09-06T00:12:03.093Z,20.06
2022-09-06T00:13:03.095Z,20.06
2022-09-06T00:14:03.061Z,20.07
2022-09-06T00:15:03.058Z,19.96
2022-09-06T00:16:03.057Z,19.92
2022-09-06T00:17:03.036Z,19.96
2022-09-06T00:18:03.052Z,19.96
2022-09-06T00:19:03.005Z,19.91
2022-09-06T00:20:03.019Z,19.88
2022-09-06T00:21:02.991Z,19.92
2022-09-06T00:22:02.979Z,19.84
2022-09-06T00:23:02.974Z,19.92
2022-09-06T00:24:02.977Z,19.94
2022-09-06T00:25:02.941Z,19.85
2022-09-06T00:26:02.932Z,19.82
2022-09-06T00:27:02.924Z,19.77
2022-09-06T00:28:02.914Z,19.84
2022-09-06T00:29:02.928Z,19.86
2022-09-06T00:30:02.904Z,19.76
2022-09-06T00:31:02.911Z,19.69
2022-09-06T00:32:02.873Z,19.73
2022-09-06T00:33:02.854Z,19.77
2022-09-06T00:34:02.845Z,19.84
2022-09-06T00:35:02.832Z,19.82
2022-09-06T00:36:02.869Z,19.84
2022-09-06T00:37:02.809Z,19.84
2022-09-06T00:38:02.815Z,19.88
2022-09-06T00:39:02.791Z,19.91
2022-09-06T00:40:02.881Z,19.89
2022-09-06T00:41:02.792Z,19.88
2022-09-06T00:42:02.773Z,19.92
2022-09-06T00:43:02.754Z,19.88
2022-09-06T00:44:02.751Z,19.89
2022-09-06T00:45:02.790Z,19.88
2022-09-06T00:46:02.797Z,19.86
2022-09-06T00:47:02.701Z,19.89
2022-09-06T00:48:02.691Z,19.85
2022-09-06T00:49:02.684Z,19.91
2022-09-06T00:50:02.667Z,19.85
2022-09-06T00:51:02.702Z,19.88
2022-09-06T00:52:02.673Z,19.86
2022-09-06T00:53:02.639Z,19.91
2022-09-06T00:54:02.624Z,19.77
2022-09-06T00:55:02.620Z,19.82
2022-09-06T00:56:02.664Z,19.76
2022-09-06T00:57:02.603Z,19.73
2022-09-06T00:58:02.609Z,19.77
2022-09-06T00:59:02.578Z,19.81
2022-09-06T01:00:02.559Z,19.77
2022-09-06T01:01:02.583Z,19.77
2022-09-06T01:02:02.679Z,19.81
2022-09-06T01:03:02.543Z,19.71
2022-09-06T01:04:02.533Z,19.77
2022-09-06T01:05:02.507Z,19.79
2022-09-06T01:06:02.514Z,19.79
2022-09-06T01:07:02.496Z,19.76
2022-09-06T01:08:02.473Z,19.76
2022-09-06T01:09:02.475Z,19.64
2022-09-06T01:10:02.515Z,19.67
2022-09-06T01:11:02.447Z,19.63
2022-09-06T01:12:02.427Z,19.49
2022-09-06T01:13:02.420Z,19.40
2022-09-06T01:14:02.442Z,19.41
2022-09-06T01:15:02.406Z,19.51
2022-09-06T01:16:02.462Z,19.41
2022-09-06T01:17:02.371Z,19.48
2022-09-06T01:18:02.386Z,19.41
2022-09-06T01:19:02.355Z,19.44
2022-09-06T01:20:02.370Z,19.56
2022-09-06T01:21:02.341Z,19.51
2022-09-06T01:22:02.323Z,19.48
2022-09-06T01:23:02.313Z,19.48
2022-09-06T01:24:02.309Z,19.45
2022-09-06T01:25:02.333Z,19.56
2022-09-06T01:26:02.285Z,19.56
2022-09-06T01:27:02.285Z,19.48
2022-09-06T01:28:02.301Z,19.54
2022-09-06T01:29:02.246Z,19.54
2022-09-06T01:30:02.241Z,19.59
2022-09-06T01:31:02.318Z,19.62
2022-09-06T01:32:02.223Z,19.58
2022-09-06T01:33:02.245Z,19.58
2022-09-06T01:34:02.186Z,19.47
2022-09-06T01:35:02.197Z,19.56
2022-09-06T01:36:02.174Z,19.62
2022-09-06T01:37:10.760Z,19.47
2022-09-06T01:38:03.148Z,19.45
2022-09-06T01:39:02.132Z,19.55
2022-09-06T01:40:02.191Z,19.45
2022-09-06T01:41:02.137Z,19.49
2022-09-06T01:42:02.124Z,19.45
2022-09-06T01:43:02.089Z,19.45
2022-09-06T01:44:02.083Z,19.44
2022-09-06T01:45:02.074Z,19.45
2022-09-06T01:46:02.195Z,19.41
2022-09-06T01:47:02.045Z,19.41
2022-09-06T01:48:02.081Z,19.33
2022-09-06T01:49:02.038Z,19.34
2022-09-06T01:50:02.044Z,19.31
2022-09-06T01:51:02.033Z,19.22
2022-09-06T01:52:01.999Z,19.26
2022-09-06T01:53:01.982Z,19.27
2022-09-06T01:54:01.982Z,19.44
2022-09-06T01:55:01.968Z,19.29
2022-09-06T01:56:01.972Z,19.26
2022-09-06T01:57:01.938Z,19.33
2022-09-06T01:58:01.928Z,19.36
2022-09-06T01:59:01.921Z,19.29
2022-09-06T02:00:01.906Z,19.21
2022-09-06T02:01:01.969Z,19.36
2022-09-06T02:02:01.979Z,19.31
2022-09-06T02:03:01.887Z,19.31
2022-09-06T02:04:01.877Z,19.24
2022-09-06T02:05:01.861Z,19.30
2022-09-06T02:06:01.857Z,19.31
2022-09-06T02:07:01.841Z,19.37
2022-09-06T02:08:01.848Z,19.24
2022-09-06T02:09:01.806Z,19.31
2022-09-06T02:10:01.792Z,19.22
2022-09-06T02:11:01.784Z,19.22
2022-09-06T02:12:01.792Z,19.26
2022-09-06T02:13:01.772Z,19.22
2022-09-06T02:14:01.748Z,19.21
2022-09-06T02:15:01.746Z,19.19
2022-09-06T02:16:01.740Z,19.21
2022-09-06T02:17:01.771Z,19.18
2022-09-06T02:18:01.728Z,19.19
2022-09-06T02:19:01.728Z,19.24
2022-09-06T02:20:01.684Z,19.11
2022-09-06T02:21:01.681Z,19.16
2022-09-06T02:22:01.669Z,19.16
2022-09-06T02:23:01.709Z,19.11
2022-09-06T02:24:01.663Z,19.12
2022-09-06T02:25:01.654Z,19.07
2022-09-06T02:26:01.649Z,19.11
2022-09-06T02:27:01.609Z,18.99
2022-09-06T02:28:01.603Z,18.95
2022-09-06T02:29:01.595Z,18.98
2022-09-06T02:30:01.593Z,19.00
2022-09-06T02:31:01.608Z,18.90
2022-09-06T02:32:01.570Z,18.99
2022-09-06T02:33:01.548Z,19.02
2022-09-06T02:34:01.585Z,19.07
2022-09-06T02:35:01.528Z,18.98
2022-09-06T02:36:01.529Z,19.00
2022-09-06T02:37:01.523Z,19.09
2022-09-06T02:38:01.544Z,19.09
2022-09-06T02:39:01.477Z,19.12
2022-09-06T02:40:01.494Z,19.09
2022-09-06T02:41:01.461Z,19.12
2022-09-06T02:42:01.460Z,19.08
2022-09-06T02:43:01.462Z,19.12
2022-09-06T02:44:01.425Z,18.95
2022-09-06T02:45:01.420Z,19.04
2022-09-06T02:46:01.464Z,18.96
2022-09-06T02:47:01.396Z,19.02
2022-09-06T02:48:01.395Z,18.86
2022-09-06T02:49:01.382Z,18.88
2022-09-06T02:50:01.359Z,18.92
2022-09-06T02:51:01.349Z,18.93
2022-09-06T02:52:01.360Z,18.88
2022-09-06T02:53:01.339Z,18.88
2022-09-06T02:54:01.314Z,18.88
2022-09-06T02:55:01.339Z,18.89
2022-09-06T02:56:01.291Z,18.93
2022-09-06T02:57:01.308Z,18.90
2022-09-06T02:58:01.283Z,18.83
2022-09-06T02:59:01.260Z,18.84
2022-09-06T03:00:01.284Z,18.68
2022-09-06T03:01:01.355Z,18.78
2022-09-06T03:02:01.310Z,18.62
2022-09-06T03:03:01.225Z,18.65
2022-09-06T03:04:01.218Z,18.66
2022-09-06T03:05:01.201Z,18.65
2022-09-06T03:06:01.213Z,18.62
2022-09-06T03:07:01.171Z,18.63
2022-09-06T03:08:01.165Z,18.62
2022-09-06T03:09:01.173Z,18.63
2022-09-06T03:10:01.169Z,18.65
2022-09-06T03:11:01.137Z,18.50
2022-09-06T03:12:01.154Z,18.66
2022-09-06T03:13:01.149Z,18.70
2022-09-06T03:14:01.095Z,18.66
2022-09-06T03:15:01.102Z,18.66
2022-09-06T03:16:01.080Z,18.60
2022-09-06T03:17:01.171Z,18.73
2022-09-06T03:18:01.106Z,18.78
2022-09-06T03:19:01.070Z,18.77
2022-09-06T03:20:01.042Z,18.77
2022-09-06T03:21:01.021Z,18.70
2022-09-06T03:22:01.035Z,18.77
2022-09-06T03:23:01.014Z,18.75
2022-09-06T03:24:00.985Z,18.78
2022-09-06T03:25:00.980Z,18.77
2022-09-06T03:26:00.973Z,18.66
2022-09-06T03:27:00.965Z,18.74
2022-09-06T03:28:00.960Z,18.73
2022-09-06T03:29:00.939Z,18.73
2022-09-06T03:30:00.925Z,18.74
2022-09-06T03:31:01.030Z,18.71
2022-09-06T03:32:00.901Z,18.66
2022-09-06T03:33:02.927Z,18.68
2022-09-06T03:34:00.896Z,18.63
2022-09-06T03:35:00.875Z,18.63
2022-09-06T03:36:00.865Z,18.56
2022-09-06T03:37:00.848Z,18.47
2022-09-06T03:38:00.843Z,18.45
2022-09-06T03:39:00.846Z,18.33
2022-09-06T03:40:00.888Z,18.31
2022-09-06T03:41:00.799Z,18.34
2022-09-06T03:42:00.796Z,18.40
2022-09-06T03:43:00.782Z,18.35
2022-09-06T03:44:00.792Z,18.29
2022-09-06T03:45:00.767Z,18.25
2022-09-06T03:46:00.846Z,18.29
2022-09-06T03:47:00.768Z,18.31
2022-09-06T03:48:00.733Z,18.16
2022-09-06T03:49:00.732Z,18.22
2022-09-06T03:50:00.728Z,18.18
2022-09-06T03:51:00.695Z,18.10
2022-09-06T03:52:00.697Z,18.13
2022-09-06T03:53:00.668Z,18.08
2022-09-06T03:54:00.681Z,18.11
2022-09-06T03:55:00.723Z,18.13
2022-09-06T03:56:00.635Z,18.04
2022-09-06T03:57:00.641Z,18.22
2022-09-06T03:58:00.614Z,18.08
2022-09-06T03:59:00.610Z,18.18
2022-09-06T04:00:00.624Z,18.25
2022-09-06T04:01:00.669Z,18.25
2022-09-06T04:02:00.629Z,18.13
2022-09-06T04:03:01.832Z,18.13
2022-09-06T04:04:00.550Z,18.23
2022-09-06T04:05:00.541Z,18.26
2022-09-06T04:06:00.537Z,18.19
2022-09-06T04:07:00.521Z,18.19
2022-09-06T04:08:00.529Z,18.18
2022-09-06T04:09:00.510Z,18.11
2022-09-06T04:10:00.485Z,17.97
2022-09-06T04:11:00.493Z,17.97
2022-09-06T04:12:00.466Z,17.89
2022-09-06T04:13:00.449Z,17.95
2022-09-06T04:14:00.441Z,18.04
2022-09-06T04:15:00.429Z,17.97
2022-09-06T04:16:00.451Z,17.90
2022-09-06T04:17:00.519Z,17.97
2022-09-06T04:18:00.427Z,18.01
2022-09-06T04:19:00.385Z,17.90
2022-09-06T04:20:00.386Z,17.89
2022-09-06T04:21:00.389Z,17.98
2022-09-06T04:22:00.350Z,18.05
2022-09-06T04:23:00.343Z,18.08
2022-09-06T04:24:00.329Z,18.13
2022-09-06T04:25:00.320Z,18.10
2022-09-06T04:26:00.351Z,18.04
2022-09-06T04:27:00.293Z,18.00
2022-09-06T04:28:00.282Z,18.08
2022-09-06T04:29:00.294Z,18.03
2022-09-06T04:30:00.266Z,18.05
2022-09-06T04:31:04.353Z,18.08
2022-09-06T04:32:00.305Z,18.08
2022-09-06T04:33:00.243Z,18.11
2022-09-06T04:34:00.274Z,18.08
2022-09-06T04:35:00.223Z,17.94
2022-09-06T04:36:00.195Z,17.92
2022-09-06T04:37:00.195Z,17.97
2022-09-06T04:38:00.170Z,17.95
2022-09-06T04:39:00.179Z,17.94
2022-09-06T04:40:00.289Z,18.07
2022-09-06T04:41:00.150Z,17.94
2022-09-06T04:42:00.125Z,17.94
2022-09-06T04:43:00.152Z,18.08
2022-09-06T04:44:00.127Z,18.01
2022-09-06T04:45:00.115Z,17.97
2022-09-06T04:46:00.181Z,18.13
2022-09-06T04:47:00.072Z,18.07
2022-09-06T04:48:00.069Z,18.04
2022-09-06T04:49:00.087Z,18.11
2022-09-06T04:50:00.047Z,18.03
2022-09-06T04:51:00.051Z,18.10
2022-09-06T04:52:00.553Z,18.15
2022-09-06T04:53:00.020Z,18.11
2022-09-06T04:54:00.028Z,18.22
2022-09-06T04:54:59.991Z,18.16
2022-09-06T04:55:59.974Z,18.22
2022-09-06T04:56:59.968Z,18.18
2022-09-06T04:57:59.980Z,18.19
2022-09-06T04:58:59.954Z,18.25
2022-09-06T04:59:59.949Z,18.19
2022-09-06T05:01:00.036Z,18.20
2022-09-06T05:01:59.996Z,18.23
2022-09-06T05:02:59.902Z,18.29
2022-09-06T05:03:59.924Z,18.29
2022-09-06T05:04:59.888Z,18.33
2022-09-06T05:05:59.883Z,18.28
2022-09-06T05:06:59.853Z,18.29
2022-09-06T05:07:59.843Z,18.13
2022-09-06T05:08:59.862Z,18.03
2022-09-06T05:09:59.844Z,18.08
2022-09-06T05:10:59.823Z,17.98
2022-09-06T05:11:59.821Z,17.95
2022-09-06T05:12:59.791Z,17.97
2022-09-06T05:13:59.776Z,17.94
2022-09-06T05:14:59.770Z,17.95
2022-09-06T05:15:59.843Z,18.13
2022-09-06T05:16:59.760Z,18.08
2022-09-06T05:17:59.751Z,18.16
2022-09-06T05:18:59.725Z,18.13
2022-09-06T05:19:59.713Z,18.15
2022-09-06T05:20:59.710Z,18.29
2022-09-06T05:21:59.700Z,18.35
2022-09-06T05:22:59.692Z,18.26
2022-09-06T05:23:59.664Z,18.29
2022-09-06T05:24:59.660Z,18.31
2022-09-06T05:25:59.658Z,18.40
2022-09-06T05:26:59.691Z,18.40
2022-09-06T05:27:59.631Z,18.37
2022-09-06T05:28:59.636Z,18.40
2022-09-06T05:29:59.626Z,18.35
2022-09-06T05:30:59.591Z,18.23
2022-09-06T05:31:59.639Z,18.33
2022-09-06T05:32:59.587Z,18.40
2022-09-06T05:33:59.569Z,18.47
2022-09-06T05:34:59.555Z,18.41
2022-09-06T05:35:59.548Z,18.47
2022-09-06T05:36:59.527Z,18.50
2022-09-06T05:37:59.528Z,18.40
2022-09-06T05:38:59.501Z,18.45
2022-09-06T05:39:59.552Z,18.49
2022-09-06T05:40:59.476Z,18.35
2022-09-06T05:41:59.469Z,18.40
2022-09-06T05:42:59.470Z,18.31
2022-09-06T05:43:59.464Z,18.31
2022-09-06T05:44:59.449Z,18.19
2022-09-06T05:45:59.506Z,18.19
2022-09-06T05:46:59.413Z,18.20
2022-09-06T05:47:59.400Z,18.19
2022-09-06T05:48:59.406Z,18.22
2022-09-06T05:49:59.407Z,18.31
2022-09-06T05:50:59.389Z,18.23
2022-09-06T05:51:59.363Z,18.28
2022-09-06T05:52:59.348Z,18.34
2022-09-06T05:53:59.345Z,18.37
2022-09-06T05:54:59.324Z,18.35
2022-09-06T05:55:59.369Z,18.28
2022-09-06T05:56:59.315Z,18.38
2022-09-06T05:57:59.308Z,18.35
2022-09-06T05:58:59.281Z,18.29
2022-09-06T05:59:59.277Z,18.40
2022-09-06T06:00:59.291Z,18.34
2022-09-06T06:01:59.297Z,18.35
2022-09-06T06:02:59.244Z,18.35
2022-09-06T06:03:59.238Z,18.35
2022-09-06T06:04:59.280Z,18.26
2022-09-06T06:05:59.212Z,18.29
2022-09-06T06:06:59.228Z,18.18
2022-09-06T06:07:59.206Z,18.22
2022-09-06T06:08:59.180Z,18.29
2022-09-06T06:09:59.161Z,18.31
2022-09-06T06:10:59.207Z,18.28
2022-09-06T06:11:59.137Z,18.33
2022-09-06T06:12:59.141Z,18.29
2022-09-06T06:13:59.173Z,18.33
2022-09-06T06:14:59.136Z,18.35
2022-09-06T06:15:59.098Z,18.43
2022-09-06T06:16:59.178Z,18.37
2022-09-06T06:17:59.110Z,18.44
2022-09-06T06:18:59.098Z,18.47
2022-09-06T06:19:59.055Z,18.50
2022-09-06T06:20:59.046Z,18.52
2022-09-06T06:21:59.102Z,18.40
2022-09-06T06:22:59.019Z,18.37
2022-09-06T06:23:59.009Z,18.40
2022-09-06T06:24:59.006Z,18.45
2022-09-06T06:25:58.990Z,18.41
2022-09-06T06:26:58.996Z,18.45
2022-09-06T06:27:58.963Z,18.43
2022-09-06T06:28:58.957Z,18.38
2022-09-06T06:29:58.948Z,18.43
2022-09-06T06:30:58.929Z,18.43
2022-09-06T06:31:59.000Z,18.41
2022-09-06T06:32:58.907Z,18.49
2022-09-06T06:33:58.904Z,18.38
2022-09-06T06:34:58.910Z,18.38
2022-09-06T06:35:58.891Z,18.37
2022-09-06T06:36:58.864Z,18.35
2022-09-06T06:37:58.854Z,18.34
2022-09-06T06:38:58.845Z,18.31
2022-09-06T06:39:58.912Z,18.41
2022-09-06T06:41:03.170Z,18.44
2022-09-06T06:41:58.832Z,18.37
2022-09-06T06:42:58.800Z,18.38
2022-09-06T06:43:58.895Z,18.44
2022-09-06T06:44:58.777Z,18.43
2022-09-06T06:45:58.892Z,18.44
2022-09-06T06:46:58.770Z,18.58
2022-09-06T06:47:58.766Z,18.60
2022-09-06T06:48:58.733Z,18.53
2022-09-06T06:49:58.730Z,18.63
2022-09-06T06:50:58.734Z,18.62
2022-09-06T06:51:58.709Z,18.62
2022-09-06T06:52:58.689Z,18.62
2022-09-06T06:53:58.701Z,18.58
2022-09-06T06:54:58.680Z,18.62
2022-09-06T06:55:58.678Z,18.65
2022-09-06T06:56:58.642Z,18.65
2022-09-06T06:57:58.634Z,18.66
2022-09-06T06:58:58.643Z,18.68
2022-09-06T06:59:58.646Z,18.75
2022-09-06T07:00:58.748Z,18.75
2022-09-06T07:01:58.755Z,18.75
2022-09-06T07:02:58.593Z,18.71
2022-09-06T07:03:58.575Z,18.81
2022-09-06T07:04:58.584Z,18.92
2022-09-06T07:06:13.868Z,18.93
2022-09-06T07:07:58.565Z,18.92
2022-09-06T07:08:58.559Z,18.81
2022-09-06T07:10:58.509Z,18.77
2022-09-06T07:11:58.492Z,18.68
2022-09-06T07:12:58.477Z,18.73
2022-09-06T07:13:58.501Z,18.77
2022-09-06T07:14:58.484Z,18.88
2022-09-06T07:15:58.471Z,18.80
2022-09-06T07:16:58.448Z,18.88
2022-09-06T07:17:58.430Z,18.88
2022-09-06T07:18:58.410Z,18.92
2022-09-06T07:20:14.502Z,19.00
2022-09-06T07:22:00.307Z,19.02
2022-09-06T07:24:07.201Z,18.98
2022-09-06T07:24:59.337Z,19.04
2022-09-06T07:25:58.330Z,19.11
2022-09-06T07:27:59.756Z,19.14
2022-09-06T07:28:58.314Z,19.21
2022-09-06T07:29:58.298Z,19.21
2022-09-06T07:30:58.271Z,19.26
2022-09-06T07:32:13.665Z,19.26
2022-09-06T07:32:59.267Z,19.29
2022-09-06T07:33:58.265Z,19.39
2022-09-06T07:34:58.228Z,19.34
2022-09-06T07:35:58.242Z,19.44
2022-09-06T07:36:58.205Z,19.45
2022-09-06T07:37:58.202Z,19.52
2022-09-06T07:38:58.370Z,19.49
2022-09-06T07:39:58.276Z,19.49
2022-09-06T07:40:58.165Z,19.52
2022-09-06T07:41:58.157Z,19.44
2022-09-06T07:42:58.173Z,19.41
2022-09-06T07:43:58.134Z,19.41
2022-09-06T07:44:58.134Z,19.48
2022-09-06T07:45:58.740Z,19.48
2022-09-06T07:47:58.212Z,19.49
2022-09-06T07:48:58.073Z,19.48
2022-09-06T07:50:59.126Z,19.47
2022-09-06T07:51:58.191Z,19.63
2022-09-06T07:53:16.593Z,19.56
2022-09-06T07:54:19.360Z,19.69
2022-09-06T07:54:58.013Z,19.66
2022-09-06T07:55:58.010Z,19.77
2022-09-06T07:56:58.018Z,19.79
2022-09-06T07:57:58.004Z,19.86
2022-09-06T07:58:57.976Z,19.92
2022-09-06T07:59:57.991Z,19.94
2022-09-06T08:00:57.969Z,19.99
2022-09-06T08:01:58.083Z,19.95
2022-09-06T08:02:57.944Z,20.00
2022-09-06T08:03:57.911Z,20.04
2022-09-06T08:04:57.916Z,20.00
2022-09-06T08:06:13.222Z,19.95
2022-09-06T08:08:59.479Z,19.91
2022-09-06T08:09:57.845Z,19.88
2022-09-06T08:10:57.839Z,19.82
2022-09-06T08:11:57.829Z,19.84
2022-09-06T08:12:57.816Z,19.84
2022-09-06T08:13:57.835Z,19.92
2022-09-06T08:14:57.805Z,19.86
2022-09-06T08:15:57.829Z,19.82
2022-09-06T08:16:57.790Z,19.92
2022-09-06T08:17:57.795Z,19.89
2022-09-06T08:18:57.745Z,19.88
2022-09-06T08:19:57.750Z,19.86
2022-09-06T08:20:57.740Z,19.81
2022-09-06T08:21:57.727Z,19.81
2022-09-06T08:22:57.733Z,19.88
2022-09-06T08:23:57.695Z,19.86
2022-09-06T08:24:57.680Z,19.96
2022-09-06T08:25:57.674Z,19.96
2022-09-06T08:26:57.727Z,20.04
2022-09-06T08:27:57.659Z,20.11
2022-09-06T08:28:57.675Z,20.11
2022-09-06T08:29:57.644Z,20.10
2022-09-06T08:30:57.640Z,20.13
2022-09-06T08:31:57.666Z,20.19
2022-09-06T08:32:57.596Z,20.18
2022-09-06T08:33:57.587Z,20.22
2022-09-06T08:34:57.602Z,20.25
2022-09-06T08:35:57.643Z,20.06
2022-09-06T08:36:57.550Z,20.06
2022-09-06T08:37:57.565Z,20.18
2022-09-06T08:38:57.552Z,20.18
2022-09-06T08:39:57.599Z,20.25
2022-09-06T08:40:57.510Z,20.19
2022-09-06T08:41:57.509Z,20.25
2022-09-06T08:42:57.482Z,20.29
2022-09-06T08:44:58.124Z,20.32
2022-09-06T08:45:57.459Z,20.41
2022-09-06T08:46:57.525Z,20.47
2022-09-06T08:47:57.452Z,20.65
2022-09-06T08:48:57.419Z,20.77
2022-09-06T08:49:57.406Z,20.78
2022-09-06T08:50:57.430Z,20.96
2022-09-06T08:51:57.396Z,21.07
2022-09-06T08:53:16.334Z,21.02
2022-09-06T08:53:58.382Z,21.05
2022-09-06T08:54:57.362Z,21.02
2022-09-06T08:55:57.364Z,21.15
2022-09-06T08:56:57.346Z,21.02
2022-09-06T08:57:57.356Z,21.09
2022-09-06T08:58:57.311Z,21.21
2022-09-06T08:59:57.296Z,21.18
2022-09-06T09:00:57.398Z,21.14
2022-09-06T09:01:57.367Z,21.14
2022-09-06T09:02:57.273Z,21.25
2022-09-06T09:03:57.259Z,21.20
2022-09-06T09:04:57.302Z,21.21
2022-09-06T09:05:57.234Z,21.12
2022-09-06T09:06:57.242Z,21.15
2022-09-06T09:07:57.215Z,21.12
2022-09-06T09:08:57.207Z,21.02
2022-09-06T09:09:57.221Z,21.09
2022-09-06T09:10:57.217Z,21.22
2022-09-06T09:11:57.191Z,21.25
2022-09-06T09:12:57.155Z,21.36
2022-09-06T09:13:57.162Z,21.48
2022-09-06T09:14:57.142Z,21.51
2022-09-06T09:15:57.198Z,21.64
2022-09-06T09:16:57.120Z,21.75
2022-09-06T09:17:57.105Z,21.76
2022-09-06T09:18:57.118Z,21.76
2022-09-06T09:19:57.086Z,21.72
2022-09-06T09:20:57.085Z,21.89
2022-09-06T09:21:57.058Z,21.98
2022-09-06T09:22:57.073Z,22.02
2022-09-06T09:23:57.045Z,21.82
2022-09-06T09:24:57.050Z,21.82
2022-09-06T09:25:57.025Z,21.76
2022-09-06T09:26:57.029Z,21.92
2022-09-06T09:27:56.993Z,21.96
2022-09-06T09:28:56.980Z,22.02
2022-09-06T09:30:57.031Z,22.00
2022-09-06T09:31:57.042Z,22.06
2022-09-06T09:32:56.967Z,22.20
2022-09-06T09:33:56.936Z,22.25
2022-09-06T09:34:56.915Z,22.22
2022-09-06T09:35:56.932Z,22.33
2022-09-06T09:37:59.143Z,22.41
2022-09-06T09:38:56.934Z,22.43
2022-09-06T09:39:56.943Z,22.54
2022-09-06T09:40:56.854Z,22.50
2022-09-06T09:41:56.875Z,22.48
2022-09-06T09:42:56.839Z,22.57
2022-09-06T09:43:59.158Z,22.55
2022-09-06T09:44:56.804Z,22.60
2022-09-06T09:45:56.793Z,22.66
2022-09-06T09:46:56.871Z,22.73
2022-09-06T09:47:56.779Z,22.81
2022-09-06T09:48:56.773Z,22.81
2022-09-06T09:49:56.766Z,22.78
2022-09-06T09:50:56.774Z,22.84
2022-09-06T09:51:56.743Z,22.93
2022-09-06T09:52:56.726Z,22.93
2022-09-06T09:53:56.710Z,22.93
2022-09-06T09:54:56.723Z,23.03
2022-09-06T09:55:56.746Z,23.03
2022-09-06T09:56:56.775Z,22.98
2022-09-06T09:57:56.726Z,23.02
2022-09-06T09:58:56.671Z,23.13
2022-09-06T09:59:56.658Z,23.17
2022-09-06T10:00:56.831Z,23.10
2022-09-06T10:01:56.643Z,23.18
2022-09-06T10:02:56.736Z,23.24
2022-09-06T10:04:56.599Z,23.25
2022-09-06T10:06:02.144Z,23.31
2022-09-06T10:07:11.821Z,23.32
2022-09-06T10:07:57.572Z,23.44
2022-09-06T10:08:56.551Z,23.51
2022-09-06T10:09:56.536Z,23.47
2022-09-06T10:10:56.560Z,23.36
2022-09-06T10:11:56.514Z,23.41
2022-09-06T10:12:56.520Z,23.44
2022-09-06T10:13:56.499Z,23.44
2022-09-06T10:14:56.495Z,23.47
2022-09-06T10:15:56.486Z,23.46
2022-09-06T10:16:56.461Z,23.56
2022-09-06T10:17:56.463Z,23.51
2022-09-06T10:18:56.454Z,23.58
2022-09-06T10:19:56.428Z,23.56
2022-09-06T10:20:56.441Z,23.58
2022-09-06T10:21:56.416Z,23.54
2022-09-06T10:22:56.394Z,23.68
2022-09-06T10:24:56.381Z,23.74
2022-09-06T10:25:56.374Z,23.92
2022-09-06T10:26:56.351Z,23.84
2022-09-06T10:28:12.030Z,23.87
2022-09-06T10:28:57.344Z,24.06
2022-09-06T10:29:56.332Z,24.05
2022-09-06T10:30:56.385Z,24.05
2022-09-06T10:31:56.302Z,24.11
2022-09-06T10:32:56.287Z,24.10
2022-09-06T10:33:56.280Z,24.17
2022-09-06T10:34:56.278Z,24.17
2022-09-06T10:35:56.275Z,24.20
2022-09-06T10:36:56.257Z,24.21
2022-09-06T10:37:56.233Z,24.26
2022-09-06T10:38:58.396Z,24.29
2022-09-06T10:39:56.267Z,24.26
2022-09-06T10:40:56.213Z,24.26
2022-09-06T10:41:56.199Z,24.30
2022-09-06T10:42:56.201Z,24.35
2022-09-06T10:43:56.206Z,24.20
2022-09-06T10:44:56.158Z,24.20
2022-09-06T10:45:56.158Z,24.14
2022-09-06T10:46:56.223Z,24.26
2022-09-06T10:47:56.129Z,24.24
2022-09-06T10:48:56.152Z,24.26
2022-09-06T10:49:56.123Z,24.32
2022-09-06T10:50:56.095Z,24.28
2022-09-06T10:51:56.094Z,24.26
2022-09-06T10:52:56.092Z,24.26
2022-09-06T10:53:56.086Z,24.30
2022-09-06T10:54:56.072Z,24.28
2022-09-06T10:55:59.739Z,24.28
2022-09-06T10:56:56.033Z,24.28
2022-09-06T10:59:56.016Z,24.23
2022-09-06T11:00:55.986Z,24.23
2022-09-06T11:01:56.091Z,24.21
2022-09-06T11:03:58.548Z,24.20
2022-09-06T11:05:55.944Z,24.24
2022-09-06T11:06:55.946Z,24.23
2022-09-06T11:08:58.296Z,24.13
2022-09-06T11:09:55.896Z,24.08
2022-09-06T11:10:55.916Z,24.10
2022-09-06T11:11:55.960Z,24.16
2022-09-06T11:12:55.859Z,24.23
2022-09-06T11:13:55.847Z,24.03
2022-09-06T11:14:55.847Z,23.95
2022-09-06T11:15:55.881Z,24.01
2022-09-06T11:16:55.838Z,24.05
2022-09-06T11:17:55.801Z,24.03
2022-09-06T11:18:55.793Z,24.08
2022-09-06T11:19:55.788Z,23.99
2022-09-06T11:20:55.789Z,24.05
2022-09-06T11:21:55.759Z,24.02
2022-09-06T11:22:55.758Z,24.06
2022-09-06T11:23:55.738Z,24.02
2022-09-06T11:24:55.729Z,23.98
2022-09-06T11:25:55.745Z,24.02
2022-09-06T11:26:55.720Z,24.05
2022-09-06T11:27:58.080Z,24.10
2022-09-06T11:28:55.700Z,24.10
2022-09-06T11:29:55.675Z,24.08
2022-09-06T11:30:55.747Z,24.10
2022-09-06T11:32:55.728Z,24.11
2022-09-06T11:33:58.391Z,24.13
2022-09-06T11:34:55.634Z,24.10
2022-09-06T11:35:55.612Z,24.11
2022-09-06T11:36:55.614Z,24.08
2022-09-06T11:37:55.614Z,24.05
2022-09-06T11:38:55.598Z,24.06
2022-09-06T11:40:55.581Z,24.05
2022-09-06T11:41:55.543Z,24.02
2022-09-06T11:42:55.544Z,23.96
2022-09-06T11:43:55.522Z,24.02
2022-09-06T11:44:55.516Z,24.06
2022-09-06T11:45:55.592Z,24.05
2022-09-06T11:46:55.611Z,24.06
2022-09-06T11:47:55.486Z,24.05
2022-09-06T11:48:55.617Z,24.08
2022-09-06T11:49:55.487Z,24.08
2022-09-06T11:50:55.470Z,24.10
2022-09-06T11:51:55.447Z,24.18
2022-09-06T11:52:55.443Z,24.16
2022-09-06T11:53:55.427Z,24.29
2022-09-06T11:54:55.403Z,24.29
2022-09-06T11:55:55.416Z,24.29
2022-09-06T11:56:55.387Z,24.42
2022-09-06T11:57:55.378Z,24.40
2022-09-06T11:58:55.361Z,24.32
2022-09-06T11:59:55.462Z,24.45
2022-09-06T12:00:55.343Z,24.47
2022-09-06T12:01:55.355Z,24.53
2022-09-06T12:04:58.365Z,24.66
2022-09-06T12:05:55.305Z,24.68
2022-09-06T12:06:55.293Z,24.73
2022-09-06T12:07:55.292Z,24.68
2022-09-06T12:08:55.259Z,24.63
2022-09-06T12:09:55.247Z,24.68
2022-09-06T12:10:55.232Z,24.60
2022-09-06T12:11:55.239Z,24.70
2022-09-06T12:12:55.228Z,24.78
2022-09-06T12:13:55.196Z,24.68
2022-09-06T12:14:55.201Z,24.68
2022-09-06T12:15:55.235Z,24.80
2022-09-06T12:16:55.191Z,24.77
2022-09-06T12:17:55.156Z,24.81
2022-09-06T12:18:55.154Z,24.85
2022-09-06T12:19:55.181Z,24.86
2022-09-06T12:20:55.133Z,24.92
2022-09-06T12:21:55.133Z,25.01
2022-09-06T12:22:55.101Z,24.99
2022-09-06T12:23:55.086Z,25.07
2022-09-06T12:24:55.092Z,25.06
2022-09-06T12:25:55.075Z,25.10
2022-09-06T12:26:56.045Z,25.16
2022-09-06T12:27:55.059Z,25.17
2022-09-06T12:28:55.087Z,25.17
2022-09-06T12:29:55.031Z,25.18
2022-09-06T12:30:55.086Z,25.23
2022-09-06T12:31:55.008Z,25.18
2022-09-06T12:32:55.007Z,25.21
2022-09-06T12:33:54.977Z,25.26
2022-09-06T12:36:54.969Z,25.23
2022-09-06T12:37:54.965Z,25.22
2022-09-06T12:38:54.930Z,25.21
2022-09-06T12:39:54.968Z,25.11
2022-09-06T12:40:54.909Z,25.04
2022-09-06T12:41:54.917Z,25.07
2022-09-06T12:42:54.881Z,25.13
2022-09-06T12:43:54.880Z,25.11
2022-09-06T12:44:54.881Z,25.14
2022-09-06T12:45:54.849Z,25.13
2022-09-06T12:46:54.852Z,25.06
2022-09-06T12:47:54.828Z,25.08
2022-09-06T12:48:54.815Z,25.08
2022-09-06T12:49:54.825Z,25.06
2022-09-06T12:50:54.810Z,25.01
2022-09-06T12:51:54.784Z,25.06
2022-09-06T12:52:54.781Z,25.06
2022-09-06T12:53:54.780Z,25.06
2022-09-06T12:54:54.755Z,25.01
2022-09-06T12:55:54.756Z,25.07
2022-09-06T12:56:54.727Z,25.04
2022-09-06T12:57:54.729Z,24.95
2022-09-06T12:58:54.717Z,25.07
2022-09-06T12:59:54.710Z,25.01
2022-09-06T13:00:54.697Z,25.01
2022-09-06T13:01:54.868Z,24.93
2022-09-06T13:02:54.752Z,24.93
2022-09-06T13:03:54.656Z,24.95
2022-09-06T13:04:54.656Z,24.92
2022-09-06T13:05:54.684Z,24.98
2022-09-06T13:06:54.619Z,24.95
2022-09-06T13:07:54.645Z,25.03
2022-09-06T13:08:54.598Z,24.99
2022-09-06T13:09:54.590Z,25.03
2022-09-06T13:10:54.599Z,25.08
2022-09-06T13:11:54.581Z,25.11
2022-09-06T13:12:54.570Z,25.03
2022-09-06T13:13:54.552Z,25.04
2022-09-06T13:14:54.535Z,24.95
2022-09-06T13:15:54.562Z,24.96
2022-09-06T13:16:54.550Z,24.92